Time;durP1;ratioP1;P1;durP2;ratioP2;P2;SDS_P1;SDS_P2;PMS_P1;PMS_P2;Temp;Humidity;BMP_temperature;BMP_pressure;BME280_temperature;BME280_humidity;BME280_pressure;Samples;Min_cycle;Max_cycle;Signal;HPM_P1;HPM_P2
2023/03/18 00:02:31;;;;;;;2.28;1.20;;;;;;;11.25;81.86;100512.53;6278561;28;20460;-71
2023/03/18 00:05:33;;;;;;;1.50;1.10;;;;;;;11.21;82.28;100507.53;6254206;28;20053;-71
2023/03/18 00:08:35;;;;;;;2.72;1.27;;;;;;;11.27;81.63;100505.41;6253868;28;20049;-71
2023/03/18 00:11:38;;;;;;;2.80;1.13;;;;;;;11.27;82.38;100500.16;6254060;28;20045;-70
2023/03/18 00:14:40;;;;;;;3.42;1.17;;;;;;;11.24;82.49;100500.31;6255069;28;20049;-71
2023/03/18 00:17:42;;;;;;;1.10;0.90;;;;;;;11.25;84.58;100511.69;6260018;28;20049;-71
2023/03/18 00:20:44;;;;;;;4.18;1.58;;;;;;;11.22;81.98;100507.47;6253516;28;20361;-71
2023/03/18 00:23:47;;;;;;;2.85;1.00;;;;;;;11.26;81.03;100516.84;6253378;28;20353;-72
2023/03/18 00:26:49;;;;;;;1.77;1.15;;;;;;;11.21;82.54;100513.66;6253573;28;20429;-71
2023/03/18 00:29:52;;;;;;;4.97;1.20;;;;;;;11.21;82.43;100518.06;6252600;28;20053;-71
2023/03/18 00:32:55;;;;;;;2.60;1.08;;;;;;;11.25;83.85;100522.22;6253423;28;20045;-71
2023/03/18 00:35:56;;;;;;;2.83;1.50;;;;;;;11.25;83.90;100519.56;6253301;28;20056;-71
2023/03/18 00:39:02;;;;;;;2.42;1.10;;;;;;;11.24;83.92;100529.25;6253019;28;20129;-71
2023/03/18 00:42:09;;;;;;;2.25;0.93;;;;;;;11.26;84.57;100532.63;6252782;28;20045;-70
2023/03/18 00:45:12;;;;;;;2.08;1.20;;;;;;;11.26;85.81;100531.78;6252983;28;20049;-71
2023/03/18 00:48:13;;;;;;;2.28;1.23;;;;;;;11.26;86.58;100535.25;6253032;28;20511;-71
2023/03/18 00:51:16;;;;;;;3.72;1.48;;;;;;;11.32;87.06;100539.34;6252948;28;20042;-71
2023/03/18 00:54:19;;;;;;;2.60;1.65;;;;;;;11.38;86.02;100534.53;6253006;28;20092;-71
2023/03/18 00:57:21;;;;;;;4.50;1.50;;;;;;;11.36;88.99;100532.94;6255994;28;20056;-71
2023/03/18 01:00:25;;;;;;;3.35;1.20;;;;;;;11.31;89.00;100533.22;6252564;28;20041;-71
2023/03/18 01:03:26;;;;;;;2.30;1.20;;;;;;;11.23;90.71;100530.19;6252345;28;20124;-70
2023/03/18 01:06:31;;;;;;;6.40;1.50;;;;;;;11.16;94.44;100542.00;6252602;28;20050;-70
2023/03/18 01:09:33;;;;;;;4.88;1.90;;;;;;;11.10;95.51;100537.13;6252525;28;20053;-71
2023/03/18 01:12:34;;;;;;;1.92;1.42;;;;;;;11.02;98.07;100548.06;6252702;28;20045;-71
2023/03/18 01:15:37;;;;;;;2.67;1.45;;;;;;;10.95;99.40;100546.75;6252237;28;20362;-70
2023/03/18 01:18:39;;;;;;;1.90;1.33;;;;;;;10.88;100.00;100545.41;6252269;28;20045;-70
2023/03/18 01:21:40;;;;;;;2.58;1.40;;;;;;;10.79;100.00;100546.78;6252445;28;20476;-70
2023/03/18 01:24:42;;;;;;;2.80;1.55;;;;;;;10.76;100.00;100539.06;6252066;28;20049;-70
2023/03/18 01:27:44;;;;;;;6.75;2.28;;;;;;;10.70;100.00;100536.81;6252224;28;20049;-78
2023/03/18 01:30:46;;;;;;;2.58;1.60;;;;;;;10.65;100.00;100541.47;6260203;28;20373;-78
2023/03/18 01:33:48;;;;;;;3.15;1.83;;;;;;;10.57;100.00;100546.31;6260388;28;20048;-78
2023/03/18 01:36:50;;;;;;;2.75;1.50;;;;;;;10.58;100.00;100542.75;6251595;28;20376;-78
2023/03/18 01:39:52;;;;;;;9.82;2.17;;;;;;;10.60;100.00;100544.38;6251820;28;20053;-78
2023/03/18 01:42:56;;;;;;;4.63;1.80;;;;;;;10.49;100.00;100540.63;6251808;28;20069;-78
2023/03/18 01:46:01;;;;;;;4.97;2.33;;;;;;;10.46;100.00;100543.47;6251816;28;20048;-78
2023/03/18 01:49:06;;;;;;;8.07;2.15;;;;;;;10.47;100.00;100539.88;6255712;28;20346;-78
2023/03/18 01:52:14;;;;;;;3.40;1.98;;;;;;;10.51;100.00;100549.28;6254775;28;20045;-78
2023/03/18 01:55:20;;;;;;;3.00;1.73;;;;;;;10.46;100.00;100546.94;6251496;28;20045;-78
2023/03/18 01:58:24;;;;;;;5.60;2.35;;;;;;;10.39;100.00;100541.16;6254189;28;20053;-78
2023/03/18 02:01:32;;;;;;;6.80;2.85;;;;;;;10.31;100.00;100546.00;6251336;28;20052;-78
2023/03/18 02:04:37;;;;;;;6.20;1.95;;;;;;;10.31;100.00;100543.38;6267976;28;20045;-78
2023/03/18 02:07:42;;;;;;;5.22;2.10;;;;;;;10.32;100.00;100541.59;6275306;28;20060;-79
2023/03/18 02:10:44;;;;;;;4.47;2.08;;;;;;;10.29;100.00;100552.25;6275692;28;20137;-78
2023/03/18 02:13:47;;;;;;;3.63;2.45;;;;;;;10.26;100.00;100549.78;6265460;28;20616;-79
2023/03/18 02:16:55;;;;;;;5.45;2.22;;;;;;;10.23;100.00;100557.84;6253225;28;20064;-79
2023/03/18 02:20:09;;;;;;;3.90;2.05;;;;;;;10.22;100.00;100549.13;6255792;28;20429;-78
2023/03/18 02:23:21;;;;;;;4.15;2.15;;;;;;;10.20;100.00;100558.00;6250545;28;20042;-78
2023/03/18 02:26:31;;;;;;;3.78;2.15;;;;;;;10.18;100.00;100555.47;6250901;28;20128;-78
2023/03/18 02:29:36;;;;;;;4.30;2.50;;;;;;;10.13;100.00;100560.97;6250750;28;20355;-79
2023/03/18 02:32:39;;;;;;;5.55;2.42;;;;;;;10.10;100.00;100555.03;6250940;28;20505;-78
2023/03/18 02:35:44;;;;;;;5.65;2.25;;;;;;;10.10;100.00;100555.03;6258730;28;20060;-79
2023/03/18 02:38:46;;;;;;;7.30;2.53;;;;;;;10.07;100.00;100555.19;6250395;28;20053;-79
2023/03/18 02:41:48;;;;;;;4.45;2.47;;;;;;;10.06;100.00;100554.34;6261142;28;20595;-79
2023/03/18 02:44:51;;;;;;;5.88;2.60;;;;;;;10.05;100.00;100557.91;6258786;28;20434;-78
2023/03/18 02:47:52;;;;;;;9.23;2.90;;;;;;;10.04;100.00;100564.09;6263813;28;20049;-78
2023/03/18 02:50:55;;;;;;;3.67;2.00;;;;;;;10.01;100.00;100561.63;6250317;28;20167;-79
2023/03/18 02:54:01;;;;;;;6.78;2.58;;;;;;;9.98;100.00;100567.03;6250242;28;20357;-79
2023/03/18 02:57:02;;;;;;;5.20;2.55;;;;;;;10.01;100.00;100577.38;6251321;28;20052;-78
2023/03/18 03:00:06;;;;;;;6.65;2.40;;;;;;;10.03;100.00;100577.28;6257476;28;20349;-78
2023/03/18 03:03:08;;;;;;;6.80;3.25;;;;;;;9.96;100.00;100571.53;6250541;28;20460;-79
2023/03/18 03:06:09;;;;;;;4.43;2.33;;;;;;;9.95;100.00;100572.47;6249888;28;20345;-79
2023/03/18 03:09:13;;;;;;;6.22;2.92;;;;;;;9.98;100.00;100571.44;6258242;28;20053;-79
2023/03/18 03:12:14;;;;;;;4.20;2.10;;;;;;;10.00;100.00;100573.06;6250282;28;20050;-78
2023/03/18 03:15:18;;;;;;;7.90;3.20;;;;;;;9.98;100.00;100566.19;6250169;28;20041;-79
2023/03/18 03:18:19;;;;;;;6.60;3.00;;;;;;;9.98;100.00;100572.28;6258714;28;20042;-78
2023/03/18 03:21:21;;;;;;;7.55;2.95;;;;;;;9.91;100.00;100569.16;6254774;28;20443;-79
2023/03/18 03:24:22;;;;;;;7.78;2.88;;;;;;;9.91;100.00;100577.03;6259186;28;20041;-79
2023/03/18 03:27:23;;;;;;;5.97;2.55;;;;;;;9.93;100.00;100574.31;6267953;28;20064;-79
2023/03/18 03:30:26;;;;;;;13.70;3.35;;;;;;;9.93;100.00;100581.34;6254909;28;20049;-79
2023/03/18 03:33:28;;;;;;;11.18;3.25;;;;;;;9.94;100.00;100581.25;6279410;28;20076;-79
2023/03/18 03:36:29;;;;;;;6.07;3.15;;;;;;;9.93;100.00;100586.59;6263054;28;20045;-79
2023/03/18 03:39:31;;;;;;;7.55;3.17;;;;;;;9.90;100.00;100587.56;6262557;28;20052;-79
2023/03/18 03:42:32;;;;;;;4.45;2.88;;;;;;;9.89;100.00;100585.88;6254769;28;20049;-79
2023/03/18 03:45:35;;;;;;;5.72;3.30;;;;;;;9.95;100.00;100584.72;6254386;28;20042;-79
2023/03/18 03:48:37;;;;;;;7.65;2.95;;;;;;;9.91;100.00;100582.25;6262503;28;20045;-79
2023/03/18 03:51:38;;;;;;;6.35;3.20;;;;;;;9.91;100.00;100578.81;6254476;28;20056;-79
2023/03/18 03:54:40;;;;;;;8.32;3.17;;;;;;;9.86;100.00;100575.56;6254362;28;20361;-78
2023/03/18 03:57:42;;;;;;;5.47;2.90;;;;;;;9.87;100.00;100577.25;6255704;28;20347;-79
2023/03/18 04:00:44;;;;;;;11.68;3.45;;;;;;;9.87;100.00;100578.09;6260485;28;20369;-79
2023/03/18 04:03:46;;;;;;;5.22;2.47;;;;;;;9.89;100.00;100578.00;6262346;28;20041;-78
2023/03/18 04:06:47;;;;;;;8.82;4.03;;;;;;;9.86;100.00;100583.44;6262179;28;20045;-79
2023/03/18 04:09:48;;;;;;;8.27;3.55;;;;;;;9.83;100.00;100592.31;6253793;28;20053;-79
2023/03/18 04:12:50;;;;;;;14.02;3.90;;;;;;;9.83;100.00;100594.09;6254090;28;20054;-78
2023/03/18 04:15:53;;;;;;;7.97;3.42;;;;;;;9.82;100.00;100597.66;6253864;28;20052;-79
2023/03/18 04:18:54;;;;;;;7.70;3.58;;;;;;;9.84;100.00;100596.63;6261578;28;20056;-78
2023/03/18 04:21:56;;;;;;;5.07;3.22;;;;;;;9.85;100.00;100597.47;6262144;28;20046;-79
2023/03/18 04:24:57;;;;;;;9.32;3.80;;;;;;;9.85;100.00;100590.44;6252792;28;20163;-79
2023/03/18 04:27:59;;;;;;;6.20;3.05;;;;;;;9.83;100.00;100591.47;6232131;28;20120;-79
2023/03/18 04:31:02;;;;;;;11.57;3.88;;;;;;;9.86;100.00;100601.81;6236690;28;20037;-78
2023/03/18 04:34:03;;;;;;;4.38;2.67;;;;;;;9.85;100.00;100600.94;6237314;28;20053;-79
2023/03/18 04:37:04;;;;;;;6.28;3.22;;;;;;;9.86;100.00;100612.31;6232538;28;20049;-78
2023/03/18 04:40:07;;;;;;;5.53;3.25;;;;;;;9.88;100.00;100613.91;6233341;28;20496;-78
2023/03/18 04:43:09;;;;;;;7.90;3.10;;;;;;;9.86;100.00;100601.81;6231360;28;20038;-78
2023/03/18 04:46:12;;;;;;;6.65;3.47;;;;;;;9.82;100.00;100597.66;6233442;28;20118;-79
2023/03/18 04:49:13;;;;;;;8.55;3.30;;;;;;;9.79;100.00;100603.91;6232999;28;20044;-79
2023/03/18 04:52:15;;;;;;;7.05;3.17;;;;;;;9.74;100.00;100603.31;6234480;28;20042;-79
2023/03/18 04:55:19;;;;;;;5.43;3.25;;;;;;;9.75;100.00;100607.63;6235332;28;20044;-79
2023/03/18 04:58:20;;;;;;;8.32;4.20;;;;;;;9.71;100.00;100595.56;6233912;28;20134;-79
2023/03/18 05:01:23;;;;;;;4.55;2.70;;;;;;;9.66;100.00;100600.22;6236779;28;20041;-79
2023/03/18 05:04:25;;;;;;;9.00;3.60;;;;;;;9.64;100.00;100599.47;6235259;28;20175;-79
2023/03/18 05:07:26;;;;;;;6.78;3.08;;;;;;;9.57;100.00;100598.91;6234568;28;20053;-79
2023/03/18 05:10:28;;;;;;;7.43;2.85;;;;;;;9.54;100.00;100596.47;6235555;28;20056;-79
2023/03/18 05:13:29;;;;;;;7.22;2.85;;;;;;;9.49;100.00;100598.44;6233049;28;20044;-79
2023/03/18 05:16:32;;;;;;;4.68;2.83;;;;;;;9.44;100.00;100604.88;6252002;28;20060;-79
2023/03/18 05:19:33;;;;;;;8.65;2.85;;;;;;;9.43;100.00;100605.81;6256001;28;20057;-79
2023/03/18 05:22:34;;;;;;;8.25;2.97;;;;;;;9.34;100.00;100605.34;6258434;28;20361;-79
2023/03/18 05:25:37;;;;;;;5.90;3.28;;;;;;;9.31;100.00;100618.63;6253037;28;20048;-79
2023/03/18 05:28:38;;;;;;;5.72;3.33;;;;;;;9.30;100.00;100624.78;6260456;28;20086;-78
2023/03/18 05:31:41;;;;;;;8.27;3.63;;;;;;;9.29;100.00;100627.47;6260486;28;20053;-79
2023/03/18 05:34:43;;;;;;;7.88;2.95;;;;;;;9.31;100.00;100623.00;6261924;28;20056;-78
2023/03/18 05:37:44;;;;;;;3.70;2.28;;;;;;;9.28;100.00;100631.03;6267441;28;20048;-79
2023/03/18 05:40:46;;;;;;;5.43;2.70;;;;;;;9.24;100.00;100632.94;6258816;28;20041;-79
2023/03/18 05:43:47;;;;;;;4.25;2.55;;;;;;;9.24;100.00;100632.94;6262063;28;20049;-79
2023/03/18 05:46:51;;;;;;;7.53;3.38;;;;;;;9.28;100.00;100631.03;6261821;28;20044;-79
2023/03/18 05:49:52;;;;;;;6.25;2.88;;;;;;;9.29;100.00;100630.09;6262407;28;20053;-79
2023/03/18 05:52:53;;;;;;;4.45;2.33;;;;;;;9.34;100.00;100641.19;6262105;28;20041;-79
2023/03/18 05:55:56;;;;;;;6.65;2.30;;;;;;;9.38;100.00;100640.97;6263106;28;20041;-79
2023/03/18 05:58:58;;;;;;;6.50;2.63;;;;;;;9.48;100.00;100635.25;6262496;28;20049;-79
2023/03/18 06:02:01;;;;;;;5.15;2.70;;;;;;;9.47;100.00;100642.28;6263365;28;20072;-78
2023/03/18 06:05:02;;;;;;;9.70;2.63;;;;;;;9.51;100.00;100649.09;6262849;28;20048;-72
2023/03/18 06:08:04;;;;;;;3.58;2.20;;;;;;;9.53;100.00;100652.47;6262807;28;20049;-72
2023/03/18 06:11:05;;;;;;;4.57;2.85;;;;;;;9.57;100.00;100655.78;6262853;28;20352;-73
2023/03/18 06:14:08;;;;;;;9.00;3.20;;;;;;;9.63;100.00;100652.88;6263112;28;20041;-72
2023/03/18 06:17:12;;;;;;;8.90;2.35;;;;;;;9.67;100.00;100654.38;6261479;28;20056;-72
2023/03/18 06:20:15;;;;;;;13.02;3.50;;;;;;;9.69;100.00;100655.16;6260381;28;20080;-72
2023/03/18 06:23:16;;;;;;;4.35;2.67;;;;;;;9.61;100.00;100658.19;6262767;28;20048;-72
2023/03/18 06:26:17;;;;;;;4.40;2.05;;;;;;;9.65;100.00;100658.88;6261323;28;20052;-72
2023/03/18 06:29:19;;;;;;;3.70;2.30;;;;;;;9.64;100.00;100660.66;6261216;28;20045;-72
2023/03/18 06:32:21;;;;;;;4.90;2.67;;;;;;;9.70;100.00;100658.63;6260862;28;20381;-72
2023/03/18 06:35:25;;;;;;;6.72;2.63;;;;;;;9.76;100.00;100658.31;6260971;28;20052;-71
2023/03/18 06:38:27;;;;;;;7.07;2.65;;;;;;;9.84;100.00;100667.50;6258371;28;20049;-72
2023/03/18 06:41:29;;;;;;;5.60;2.38;;;;;;;9.87;100.00;100659.47;6258465;28;20048;-72
2023/03/18 06:44:30;;;;;;;5.50;2.70;;;;;;;9.95;100.00;100672.22;6258063;28;20060;-72
2023/03/18 06:47:33;;;;;;;5.32;2.30;;;;;;;10.19;100.00;100671.84;6261222;28;20362;-72
2023/03/18 06:50:34;;;;;;;5.78;2.50;;;;;;;10.23;100.00;100687.38;6260725;28;20463;-72
2023/03/18 06:53:36;;;;;;;9.07;2.65;;;;;;;10.18;100.00;100688.53;6260511;28;20346;-72
2023/03/18 06:56:38;;;;;;;6.53;2.58;;;;;;;10.24;100.00;100685.59;6250000;28;20056;-72
2023/03/18 06:59:40;;;;;;;5.32;2.65;;;;;;;10.26;100.00;100691.63;6250357;28;20099;-72
2023/03/18 07:02:43;;;;;;;5.32;2.50;;;;;;;10.33;100.00;100701.72;6250434;28;20069;-72
2023/03/18 07:05:44;;;;;;;4.55;2.15;;;;;;;10.36;100.00;100701.59;6251658;28;20331;-72
2023/03/18 07:08:46;;;;;;;8.77;2.28;;;;;;;10.47;100.00;100708.88;6257176;28;20049;-72
2023/03/18 07:11:47;;;;;;;5.88;2.80;;;;;;;10.63;100.00;100722.06;6252352;28;20132;-73
2023/03/18 07:14:48;;;;;;;4.22;2.25;;;;;;;10.62;100.00;100718.56;6255971;28;20056;-72
2023/03/18 07:17:52;;;;;;;4.55;2.10;;;;;;;10.70;100.00;100722.56;6249797;28;20083;-72
2023/03/18 07:20:53;;;;;;;8.90;2.40;;;;;;;10.69;100.00;100723.50;6250150;28;20187;-72
2023/03/18 07:23:55;;;;;;;5.93;2.55;;;;;;;10.69;100.00;100734.00;6249860;28;20330;-72
2023/03/18 07:26:57;;;;;;;10.45;2.17;;;;;;;10.78;100.00;100733.50;6249847;28;20121;-78
2023/03/18 07:29:58;;;;;;;4.88;2.35;;;;;;;10.73;100.00;100739.00;6249811;28;20041;-78
2023/03/18 07:33:02;;;;;;;3.83;2.20;;;;;;;10.83;100.00;100734.09;6258134;28;20046;-78
2023/03/18 07:36:04;;;;;;;6.40;2.00;;;;;;;10.83;100.00;100734.94;6259083;28;20038;-78
2023/03/18 07:39:06;;;;;;;9.82;2.53;;;;;;;10.90;100.00;100733.69;6250287;28;20045;-76
2023/03/18 07:42:08;;;;;;;6.30;2.45;;;;;;;10.82;100.00;100733.25;6255020;28;20124;-77
2023/03/18 07:45:10;;;;;;;6.10;2.40;;;;;;;10.93;100.00;100749.28;6257455;28;20051;-76
2023/03/18 07:48:13;;;;;;;3.28;2.22;;;;;;;10.95;100.00;100766.78;6252554;28;20041;-77
2023/03/18 07:51:14;;;;;;;7.32;2.78;;;;;;;10.99;100.00;100760.38;6249939;28;20042;-71
2023/03/18 07:54:16;;;;;;;6.45;3.03;;;;;;;10.95;100.00;100765.00;6257770;28;20152;-77
2023/03/18 07:57:18;;;;;;;4.30;2.22;;;;;;;11.01;100.00;100769.91;6249026;28;20357;-77
2023/03/18 08:00:21;;;;;;;5.13;2.70;;;;;;;11.12;100.00;100758.78;6250085;28;20053;-76
2023/03/18 08:03:23;;;;;;;3.70;2.15;;;;;;;11.14;100.00;100762.19;6249710;28;20192;-77
2023/03/18 08:06:25;;;;;;;7.10;2.53;;;;;;;11.06;100.00;100769.66;6253639;28;20357;-77
2023/03/18 08:09:26;;;;;;;6.93;2.47;;;;;;;11.12;100.00;100770.16;6253923;28;20064;-77
2023/03/18 08:12:28;;;;;;;11.93;2.63;;;;;;;11.08;100.00;100773.91;6253906;28;20049;-77
2023/03/18 08:15:30;;;;;;;4.75;2.63;;;;;;;11.10;100.00;100766.78;6253638;28;20045;-77
2023/03/18 08:18:33;;;;;;;5.18;2.42;;;;;;;11.20;100.00;100779.41;6262824;28;20045;-76
2023/03/18 08:21:34;;;;;;;8.13;2.88;;;;;;;11.24;100.00;100778.31;6259841;28;20056;-78
2023/03/18 08:24:37;;;;;;;6.97;2.90;;;;;;;11.26;100.00;100787.81;6256866;28;20138;-78
2023/03/18 08:27:38;;;;;;;7.22;2.88;;;;;;;11.22;100.00;100788.94;6253755;28;20128;-78
2023/03/18 08:30:40;;;;;;;4.20;2.45;;;;;;;11.19;100.00;100794.34;6253313;28;20057;-77
2023/03/18 08:33:42;;;;;;;3.22;2.20;;;;;;;11.25;100.00;100799.25;6256129;28;20060;-76
2023/03/18 08:36:44;;;;;;;9.48;3.00;;;;;;;11.24;100.00;100800.19;6267589;28;20051;-76
2023/03/18 08:39:45;;;;;;;7.72;2.88;;;;;;;11.33;100.00;100794.44;6261814;28;20457;-76
2023/03/18 08:42:47;;;;;;;5.53;2.85;;;;;;;11.36;100.00;100801.31;6255510;28;20053;-76
2023/03/18 08:45:52;;;;;;;6.60;2.80;;;;;;;11.34;100.00;100795.28;6260768;28;20358;-76
2023/03/18 08:48:55;;;;;;;7.68;3.05;;;;;;;11.42;100.00;100800.97;6258412;28;20119;-76
2023/03/18 08:51:56;;;;;;;6.47;3.28;;;;;;;11.46;100.00;100806.91;6256535;28;20045;-75
2023/03/18 08:54:58;;;;;;;7.95;3.33;;;;;;;11.65;100.00;100812.84;6258049;28;20056;-76
2023/03/18 08:58:00;;;;;;;7.88;3.03;;;;;;;11.69;100.00;100809.94;6255663;28;20098;-76
2023/03/18 09:01:04;;;;;;;10.40;3.03;;;;;;;11.69;100.00;100807.31;6274736;28;20053;-76
2023/03/18 09:04:07;;;;;;;8.07;3.33;;;;;;;11.75;100.00;100816.63;6255711;28;20056;-76
2023/03/18 09:07:08;;;;;;;6.65;3.53;;;;;;;11.67;100.00;100818.84;6259036;28;20043;-75
2023/03/18 09:10:13;;;;;;;7.63;3.30;;;;;;;11.59;100.00;100824.56;6254803;28;20046;-76
2023/03/18 09:13:14;;;;;;;9.30;3.35;;;;;;;11.56;100.00;100826.50;6252814;28;20050;-75
2023/03/18 09:16:17;;;;;;;7.13;2.92;;;;;;;11.53;100.00;100831.94;6250592;28;20068;-76
2023/03/18 09:19:19;;;;;;;6.25;2.72;;;;;;;11.46;100.00;100828.81;6252374;28;20050;-76
2023/03/18 09:22:21;;;;;;;12.55;3.10;;;;;;;11.40;100.00;100832.63;6252487;28;20045;-75
2023/03/18 09:25:23;;;;;;;5.40;2.97;;;;;;;11.39;100.00;100825.66;6251605;28;20327;-75
2023/03/18 09:28:25;;;;;;;5.75;2.55;;;;;;;11.37;100.00;100831.94;6252152;28;20092;-76
2023/03/18 09:31:26;;;;;;;7.28;3.00;;;;;;;11.34;100.00;100838.22;6258253;28;20049;-76
2023/03/18 09:34:29;;;;;;;6.35;2.92;;;;;;;11.32;100.00;100839.25;6259703;28;20060;-77
2023/03/18 09:37:30;;;;;;;6.97;3.38;;;;;;;11.35;100.00;100839.06;6260168;28;20048;-74
2023/03/18 09:40:34;;;;;;;9.55;3.15;;;;;;;11.36;100.00;100852.16;6252022;28;20050;-74
2023/03/18 09:43:48;;;;;;;5.03;2.90;;;;;;;11.38;100.00;100846.81;6251824;28;20058;-74
2023/03/18 09:47:11;;;;;;;8.60;3.55;;;;;;;11.48;100.00;100844.50;6251729;28;20049;-74
2023/03/18 09:50:30;;;;;;;5.70;3.05;;;;;;;11.51;100.00;100853.09;6251560;28;20076;-74
2023/03/18 09:53:41;;;;;;;5.45;3.78;;;;;;;11.63;100.00;100852.41;6251779;28;20046;-73
2023/03/18 09:56:45;;;;;;;8.68;3.30;;;;;;;11.75;100.00;100845.59;6251102;28;20049;-74
2023/03/18 09:59:50;;;;;;;8.23;3.20;;;;;;;11.87;100.00;100852.84;6258146;28;20045;-74
2023/03/18 10:02:56;;;;;;;5.85;3.40;;;;;;;11.97;100.00;100845.25;6267830;28;20052;-74
2023/03/18 10:06:05;;;;;;;12.95;4.30;;;;;;;12.03;100.00;100849.31;6275680;28;20068;-74
2023/03/18 10:09:14;;;;;;;7.90;3.90;;;;;;;12.15;100.00;100845.97;6275952;28;20045;-74
2023/03/18 10:12:22;;;;;;;10.20;3.95;;;;;;;12.26;100.00;100843.53;6269965;28;20434;-74
2023/03/18 10:15:30;;;;;;;10.60;4.03;;;;;;;12.43;100.00;100851.31;6250648;28;20045;-74
2023/03/18 10:18:35;;;;;;;12.13;3.78;;;;;;;12.55;100.00;100844.47;6250998;28;20381;-74
2023/03/18 10:21:48;;;;;;;6.35;3.72;;;;;;;12.69;100.00;100843.63;6250722;28;20057;-74
2023/03/18 10:24:59;;;;;;;8.15;3.63;;;;;;;12.83;100.00;100848.91;6258812;28;20044;-76
2023/03/18 10:28:15;;;;;;;9.68;4.03;;;;;;;12.90;100.00;100854.69;6252152;28;20041;-76
2023/03/18 10:31:28;;;;;;;7.80;4.65;;;;;;;12.95;100.00;100848.16;6265321;28;20498;-75
2023/03/18 10:34:39;;;;;;;7.57;4.18;;;;;;;13.07;100.00;100861.53;6251207;28;20128;-74
2023/03/18 10:37:51;;;;;;;7.03;4.35;;;;;;;13.03;100.00;100857.38;6258912;28;20060;-76
2023/03/18 10:40:53;;;;;;;8.55;4.40;;;;;;;13.09;100.00;100864.94;6250590;28;20045;-76
2023/03/18 10:43:56;;;;;;;11.20;4.72;;;;;;;13.17;100.00;100874.09;6250482;28;20041;-76
2023/03/18 10:47:01;;;;;;;7.90;4.18;;;;;;;13.27;100.00;100877.03;6250559;28;20042;-74
2023/03/18 10:50:13;;;;;;;10.38;5.15;;;;;;;13.27;100.00;100874.38;6254585;28;20090;-74
2023/03/18 10:53:20;;;;;;;8.57;5.47;;;;;;;13.33;100.00;100870.50;6252692;28;20053;-74
2023/03/18 10:56:22;;;;;;;8.13;5.40;;;;;;;13.27;100.00;100877.03;6255995;28;20049;-74
2023/03/18 10:59:25;;;;;;;8.57;5.00;;;;;;;13.29;100.00;100867.19;6252273;28;20434;-75
2023/03/18 11:02:31;;;;;;;14.75;5.10;;;;;;;13.37;100.00;100864.94;6252096;28;20046;-74
2023/03/18 11:05:37;;;;;;;10.07;5.88;;;;;;;13.52;100.00;100870.19;6250114;28;20168;-74
2023/03/18 11:08:40;;;;;;;13.98;7.05;;;;;;;13.83;100.00;100866.44;6250268;28;20053;-74
2023/03/18 11:11:43;;;;;;;19.17;8.00;;;;;;;13.87;100.00;100863.47;6249669;28;20049;-74
2023/03/18 11:14:47;;;;;;;19.05;9.13;;;;;;;14.09;100.00;100864.72;6250109;28;20050;-74
2023/03/18 11:17:50;;;;;;;20.35;9.27;;;;;;;14.05;100.00;100868.53;6249947;28;20098;-74
2023/03/18 11:20:59;;;;;;;15.85;8.73;;;;;;;13.96;100.00;100877.88;6249863;28;20057;-74
2023/03/18 11:24:09;;;;;;;17.65;8.15;;;;;;;13.99;100.00;100882.09;6251956;28;20126;-74
2023/03/18 11:27:27;;;;;;;16.30;8.68;;;;;;;14.05;100.00;100873.81;6258001;28;20053;-74
2023/03/18 11:30:30;;;;;;;23.67;9.73;;;;;;;14.09;100.00;100877.94;6249868;28;20050;-74
2023/03/18 11:33:33;;;;;;;21.63;9.70;;;;;;;14.13;100.00;100879.44;6250716;28;20053;-74
2023/03/18 11:36:37;;;;;;;19.80;9.48;;;;;;;14.11;100.00;100882.16;6249508;28;20057;-74
2023/03/18 11:39:40;;;;;;;20.42;9.85;;;;;;;14.14;100.00;100879.31;6251171;28;20147;-74
2023/03/18 11:42:42;;;;;;;17.38;8.82;;;;;;;14.27;100.00;100876.72;6254125;28;20117;-74
2023/03/18 11:45:49;;;;;;;21.88;8.82;;;;;;;14.33;100.00;100875.47;6255830;28;20045;-74
2023/03/18 11:48:51;;;;;;;16.48;8.98;;;;;;;14.30;100.00;100870.38;6254564;28;20056;-74
2023/03/18 11:52:01;;;;;;;20.20;10.02;;;;;;;14.36;100.00;100877.91;6254679;28;20050;-74
2023/03/18 11:55:14;;;;;;;16.10;8.20;;;;;;;14.35;100.00;100874.41;6263563;28;20072;-74
2023/03/18 11:58:33;;;;;;;20.67;7.63;;;;;;;14.32;100.00;100879.91;6253515;28;20052;-74
2023/03/18 12:01:45;;;;;;;20.13;9.38;;;;;;;14.30;100.00;100875.66;6254234;28;20060;-74
2023/03/18 12:05:13;;;;;;;15.50;7.68;;;;;;;14.20;100.00;100873.63;6253701;28;20053;-74
2023/03/18 12:08:23;;;;;;;17.48;8.85;;;;;;;14.23;100.00;100874.38;6254172;28;20053;-74
2023/03/18 12:11:43;;;;;;;21.00;9.47;;;;;;;14.32;100.00;100884.34;6253690;28;20045;-74
2023/03/18 12:14:51;;;;;;;17.83;8.50;;;;;;;14.16;100.00;100881.84;6254146;28;20041;-74
2023/03/18 12:18:03;;;;;;;18.80;8.10;;;;;;;14.10;100.00;100885.75;6253861;28;20068;-74
2023/03/18 12:21:20;;;;;;;19.02;8.75;;;;;;;14.15;100.00;100877.53;6259729;28;20060;-74
2023/03/18 12:24:40;;;;;;;16.42;9.13;;;;;;;14.16;100.00;100881.84;6253662;28;20050;-75
2023/03/18 12:27:55;;;;;;;16.38;8.10;;;;;;;14.17;100.00;100886.19;6253583;28;20430;-74
2023/03/18 12:31:14;;;;;;;17.58;7.53;;;;;;;14.29;100.00;100882.75;6253717;28;20045;-74
2023/03/18 12:34:32;;;;;;;19.40;7.63;;;;;;;14.36;100.00;100883.19;6261837;28;20053;-74
2023/03/18 12:37:44;;;;;;;16.67;8.05;;;;;;;14.69;100.00;100885.38;6258717;28;20052;-74
2023/03/18 12:40:56;;;;;;;18.67;8.38;;;;;;;15.12;100.00;100887.69;6262876;28;20056;-72
2023/03/18 12:44:11;;;;;;;17.48;7.45;;;;;;;15.42;100.00;100887.34;6261765;28;20052;-72
2023/03/18 12:47:18;;;;;;;16.50;7.55;;;;;;;15.55;100.00;100885.50;6252674;28;20042;-72
2023/03/18 12:50:24;;;;;;;19.98;8.15;;;;;;;15.68;100.00;100882.84;6253650;28;20350;-72
2023/03/18 12:53:30;;;;;;;17.23;7.00;;;;;;;15.59;100.00;100871.06;6261412;28;20124;-73
2023/03/18 12:56:38;;;;;;;14.73;7.55;;;;;;;15.60;100.00;100879.88;6252731;28;20394;-72
2023/03/18 12:59:48;;;;;;;13.82;6.97;;;;;;;15.60;100.00;100877.22;6252842;28;20053;-72
2023/03/18 13:02:58;;;;;;;17.30;8.02;;;;;;;15.50;100.00;100879.69;6252943;28;20080;-73
2023/03/18 13:06:04;;;;;;;14.35;7.45;;;;;;;15.69;100.00;100877.44;6263056;28;20045;-72
2023/03/18 13:09:11;;;;;;;14.05;7.32;;;;;;;15.55;100.00;100871.41;6258954;28;20060;-72
2023/03/18 13:12:17;;;;;;;12.27;6.43;;;;;;;15.87;100.00;100877.03;6253839;28;20061;-75
2023/03/18 13:15:28;;;;;;;14.57;6.38;;;;;;;15.96;100.00;100877.22;6253861;28;20422;-75
2023/03/18 13:18:36;;;;;;;12.10;5.97;;;;;;;16.08;100.00;100870.16;6258760;28;20429;-74
2023/03/18 13:21:44;;;;;;;12.38;5.65;;;;;;;16.29;100.00;100873.00;6261551;28;20046;-78
2023/03/18 13:24:59;;;;;;;11.38;5.25;;;;;;;16.13;100.00;100869.81;6251998;28;20046;-77
2023/03/18 13:28:20;;;;;;;11.93;5.88;;;;;;;16.34;100.00;100862.03;6252171;28;20041;-78
2023/03/18 13:31:35;;;;;;;11.27;5.82;;;;;;;16.35;100.00;100856.66;6251978;28;20049;-79
2023/03/18 13:35:05;;;;;;;14.23;6.20;;;;;;;16.53;100.00;100856.19;6252190;28;20053;-76
2023/03/18 13:38:16;;;;;;;9.10;5.20;;;;;;;16.69;100.00;100857.53;6252128;28;20107;-73
2023/03/18 13:41:39;;;;;;;15.82;6.93;;;;;;;16.65;100.00;100856.09;6251507;28;20073;-78
2023/03/18 13:44:45;;;;;;;18.83;6.07;;;;;;;16.67;100.00;100863.94;6251725;28;20056;-80
2023/03/18 13:47:56;;;;;;;12.02;5.50;;;;;;;16.81;100.00;100860.25;6254829;28;20053;-78
2023/03/18 13:50:59;;;;;;;7.97;4.88;;;;;;;17.12;100.00;100861.34;6256167;28;20057;-80
2023/03/18 13:54:05;;;;;;;6.53;4.45;;;;;;;17.30;100.00;100862.53;6251467;28;20038;-80
2023/03/18 13:57:18;;;;;;;10.32;4.75;;;;;;;17.22;100.00;100855.19;6259795;28;20045;-78
2023/03/18 14:00:32;;;;;;;10.23;4.15;;;;;;;17.18;100.00;100851.09;6259638;28;20045;-79
2023/03/18 14:03:53;;;;;;;6.53;4.30;;;;;;;17.17;100.00;100859.19;6250782;28;20054;-80
2023/03/18 14:06:58;;;;;;;8.93;4.63;;;;;;;17.24;100.00;100847.09;6251231;28;20037;-80
2023/03/18 14:10:17;;;;;;;7.72;4.45;;;;;;;17.55;100.00;100847.28;6251280;28;20049;-78